sensor_id;sensor_type;location;lat;lon;timestamp;P1;durP1;ratioP1;P2;durP2;ratioP2
5813;SDS011;2933;52.302;8.134;2023-04-29T00:04:02;73.47;;;26.77;;
5813;SDS011;2933;52.302;8.134;2023-04-29T00:09:05;74.20;;;27.17;;
5813;SDS011;2933;52.302;8.134;2023-04-29T00:14:07;79.20;;;27.17;;
5813;SDS011;2933;52.302;8.134;2023-04-29T00:19:08;82.90;;;26.87;;
5813;SDS011;2933;52.302;8.134;2023-04-29T00:24:11;66.30;;;24.00;;
5813;SDS011;2933;52.302;8.134;2023-04-29T00:29:13;64.93;;;25.07;;
5813;SDS011;2933;52.302;8.134;2023-04-29T00:34:14;69.20;;;25.23;;
5813;SDS011;2933;52.302;8.134;2023-04-29T00:39:17;57.80;;;20.73;;
5813;SDS011;2933;52.302;8.134;2023-04-29T00:44:19;45.63;;;19.87;;
5813;SDS011;2933;52.302;8.134;2023-04-29T00:49:20;50.10;;;17.93;;
5813;SDS011;2933;52.302;8.134;2023-04-29T00:54:23;38.30;;;16.57;;
5813;SDS011;2933;52.302;8.134;2023-04-29T00:59:25;28.90;;;14.40;;
5813;SDS011;2933;52.302;8.134;2023-04-29T01:04:31;43.87;;;17.80;;
5813;SDS011;2933;52.302;8.134;2023-04-29T01:09:40;39.63;;;17.00;;
5813;SDS011;2933;52.302;8.134;2023-04-29T01:14:53;43.03;;;17.37;;
5813;SDS011;2933;52.302;8.134;2023-04-29T01:20:04;39.67;;;17.97;;
5813;SDS011;2933;52.302;8.134;2023-04-29T01:25:10;45.17;;;19.50;;
5813;SDS011;2933;52.302;8.134;2023-04-29T01:30:15;49.30;;;20.10;;
5813;SDS011;2933;52.302;8.134;2023-04-29T01:35:29;47.70;;;21.10;;
5813;SDS011;2933;52.302;8.134;2023-04-29T01:40:45;51.80;;;21.20;;
5813;SDS011;2933;52.302;8.134;2023-04-29T01:45:55;47.37;;;20.53;;
5813;SDS011;2933;52.302;8.134;2023-04-29T01:50:58;47.97;;;22.37;;
5813;SDS011;2933;52.302;8.134;2023-04-29T01:56:01;55.13;;;23.07;;
5813;SDS011;2933;52.302;8.134;2023-04-29T02:01:03;47.67;;;21.57;;
5813;SDS011;2933;52.302;8.134;2023-04-29T02:06:05;43.23;;;21.20;;
5813;SDS011;2933;52.302;8.134;2023-04-29T02:11:08;51.20;;;22.23;;
5813;SDS011;2933;52.302;8.134;2023-04-29T02:16:10;51.77;;;23.40;;
5813;SDS011;2933;52.302;8.134;2023-04-29T02:21:13;53.60;;;22.57;;
5813;SDS011;2933;52.302;8.134;2023-04-29T02:26:16;52.80;;;23.30;;
5813;SDS011;2933;52.302;8.134;2023-04-29T02:31:17;64.67;;;28.17;;
5813;SDS011;2933;52.302;8.134;2023-04-29T02:36:19;55.33;;;26.20;;
5813;SDS011;2933;52.302;8.134;2023-04-29T02:41:22;67.53;;;27.17;;
5813;SDS011;2933;52.302;8.134;2023-04-29T02:46:24;62.20;;;27.83;;
5813;SDS011;2933;52.302;8.134;2023-04-29T02:51:26;57.43;;;25.30;;
5813;SDS011;2933;52.302;8.134;2023-04-29T02:56:29;60.90;;;27.63;;
5813;SDS011;2933;52.302;8.134;2023-04-29T03:01:31;66.27;;;26.53;;
5813;SDS011;2933;52.302;8.134;2023-04-29T03:06:33;49.93;;;24.50;;
5813;SDS011;2933;52.302;8.134;2023-04-29T03:11:36;52.90;;;24.10;;
5813;SDS011;2933;52.302;8.134;2023-04-29T03:16:37;47.30;;;20.90;;
5813;SDS011;2933;52.302;8.134;2023-04-29T03:21:39;40.30;;;20.67;;
5813;SDS011;2933;52.302;8.134;2023-04-29T03:26:42;52.93;;;23.37;;
5813;SDS011;2933;52.302;8.134;2023-04-29T03:31:44;43.50;;;21.33;;
5813;SDS011;2933;52.302;8.134;2023-04-29T03:36:46;47.67;;;21.70;;
5813;SDS011;2933;52.302;8.134;2023-04-29T03:41:49;41.00;;;20.17;;
5813;SDS011;2933;52.302;8.134;2023-04-29T03:46:50;40.33;;;19.53;;
5813;SDS011;2933;52.302;8.134;2023-04-29T03:51:52;44.23;;;19.47;;
5813;SDS011;2933;52.302;8.134;2023-04-29T03:56:55;40.70;;;20.27;;
5813;SDS011;2933;52.302;8.134;2023-04-29T04:01:57;39.03;;;20.03;;
5813;SDS011;2933;52.302;8.134;2023-04-29T04:06:58;39.30;;;20.03;;
5813;SDS011;2933;52.302;8.134;2023-04-29T04:12:01;36.53;;;19.63;;
5813;SDS011;2933;52.302;8.134;2023-04-29T04:17:03;36.40;;;19.40;;
5813;SDS011;2933;52.302;8.134;2023-04-29T04:22:04;31.90;;;17.67;;
5813;SDS011;2933;52.302;8.134;2023-04-29T04:27:08;27.07;;;16.43;;
5813;SDS011;2933;52.302;8.134;2023-04-29T04:32:09;28.87;;;15.87;;
5813;SDS011;2933;52.302;8.134;2023-04-29T04:37:11;32.13;;;17.83;;
5813;SDS011;2933;52.302;8.134;2023-04-29T04:42:13;30.37;;;18.17;;
5813;SDS011;2933;52.302;8.134;2023-04-29T04:47:15;41.67;;;19.73;;
5813;SDS011;2933;52.302;8.134;2023-04-29T04:52:18;35.93;;;20.17;;
5813;SDS011;2933;52.302;8.134;2023-04-29T04:57:21;43.80;;;24.17;;
5813;SDS011;2933;52.302;8.134;2023-04-29T05:02:23;47.60;;;24.17;;
5813;SDS011;2933;52.302;8.134;2023-04-29T05:07:24;47.10;;;24.50;;
5813;SDS011;2933;52.302;8.134;2023-04-29T05:12:27;52.67;;;23.97;;
5813;SDS011;2933;52.302;8.134;2023-04-29T05:17:30;53.47;;;24.60;;
5813;SDS011;2933;52.302;8.134;2023-04-29T05:22:33;48.67;;;25.30;;
5813;SDS011;2933;52.302;8.134;2023-04-29T05:27:37;46.67;;;24.07;;
5813;SDS011;2933;52.302;8.134;2023-04-29T05:32:39;54.70;;;26.23;;
5813;SDS011;2933;52.302;8.134;2023-04-29T05:37:40;66.77;;;26.20;;
5813;SDS011;2933;52.302;8.134;2023-04-29T05:42:43;53.33;;;25.27;;
5813;SDS011;2933;52.302;8.134;2023-04-29T05:47:45;63.70;;;28.00;;
5813;SDS011;2933;52.302;8.134;2023-04-29T05:52:47;56.00;;;26.40;;
5813;SDS011;2933;52.302;8.134;2023-04-29T05:57:50;62.50;;;28.43;;
5813;SDS011;2933;52.302;8.134;2023-04-29T06:02:51;58.87;;;26.27;;
5813;SDS011;2933;52.302;8.134;2023-04-29T06:07:53;62.53;;;28.10;;
5813;SDS011;2933;52.302;8.134;2023-04-29T06:12:56;60.80;;;27.30;;
5813;SDS011;2933;52.302;8.134;2023-04-29T06:17:57;57.73;;;26.77;;
5813;SDS011;2933;52.302;8.134;2023-04-29T06:22:59;58.77;;;26.60;;
5813;SDS011;2933;52.302;8.134;2023-04-29T06:28:02;63.60;;;27.73;;
5813;SDS011;2933;52.302;8.134;2023-04-29T06:33:04;64.33;;;27.23;;
5813;SDS011;2933;52.302;8.134;2023-04-29T06:38:06;68.03;;;28.27;;
5813;SDS011;2933;52.302;8.134;2023-04-29T06:43:09;60.63;;;27.77;;
5813;SDS011;2933;52.302;8.134;2023-04-29T06:48:11;57.07;;;26.20;;
5813;SDS011;2933;52.302;8.134;2023-04-29T06:53:12;48.93;;;25.20;;
5813;SDS011;2933;52.302;8.134;2023-04-29T06:58:15;47.20;;;24.07;;
5813;SDS011;2933;52.302;8.134;2023-04-29T07:03:18;47.70;;;22.60;;
5813;SDS011;2933;52.302;8.134;2023-04-29T07:08:19;50.67;;;23.57;;
5813;SDS011;2933;52.302;8.134;2023-04-29T07:13:22;54.10;;;23.20;;
5813;SDS011;2933;52.302;8.134;2023-04-29T07:18:24;41.20;;;22.07;;
5813;SDS011;2933;52.302;8.134;2023-04-29T07:23:25;48.93;;;24.07;;
5813;SDS011;2933;52.302;8.134;2023-04-29T07:28:28;42.00;;;21.80;;
5813;SDS011;2933;52.302;8.134;2023-04-29T07:33:30;40.80;;;20.47;;
5813;SDS011;2933;52.302;8.134;2023-04-29T07:38:32;39.57;;;20.20;;
5813;SDS011;2933;52.302;8.134;2023-04-29T07:43:35;38.37;;;21.50;;
5813;SDS011;2933;52.302;8.134;2023-04-29T07:48:37;46.37;;;21.73;;
5813;SDS011;2933;52.302;8.134;2023-04-29T07:53:39;42.20;;;20.87;;
5813;SDS011;2933;52.302;8.134;2023-04-29T07:58:42;45.00;;;22.10;;
5813;SDS011;2933;52.302;8.134;2023-04-29T08:03:43;37.80;;;19.63;;
5813;SDS011;2933;52.302;8.134;2023-04-29T08:08:45;44.70;;;22.33;;
5813;SDS011;2933;52.302;8.134;2023-04-29T08:13:48;41.97;;;20.70;;
5813;SDS011;2933;52.302;8.134;2023-04-29T08:18:49;42.57;;;20.20;;
5813;SDS011;2933;52.302;8.134;2023-04-29T08:23:51;33.50;;;18.70;;
5813;SDS011;2933;52.302;8.134;2023-04-29T08:28:53;38.90;;;19.10;;
5813;SDS011;2933;52.302;8.134;2023-04-29T08:33:55;39.80;;;18.00;;
5813;SDS011;2933;52.302;8.134;2023-04-29T08:38:57;36.43;;;17.30;;
5813;SDS011;2933;52.302;8.134;2023-04-29T08:44:00;33.20;;;16.80;;
5813;SDS011;2933;52.302;8.134;2023-04-29T08:49:02;31.37;;;16.97;;
5813;SDS011;2933;52.302;8.134;2023-04-29T08:54:04;34.00;;;17.00;;
5813;SDS011;2933;52.302;8.134;2023-04-29T08:59:08;29.60;;;16.07;;
5813;SDS011;2933;52.302;8.134;2023-04-29T09:04:11;29.20;;;15.50;;
5813;SDS011;2933;52.302;8.134;2023-04-29T09:09:21;27.60;;;15.40;;
5813;SDS011;2933;52.302;8.134;2023-04-29T09:14:25;22.20;;;14.17;;
5813;SDS011;2933;52.302;8.134;2023-04-29T09:19:29;21.70;;;14.10;;
5813;SDS011;2933;52.302;8.134;2023-04-29T09:24:31;28.23;;;14.50;;
5813;SDS011;2933;52.302;8.134;2023-04-29T09:29:34;31.87;;;13.67;;
5813;SDS011;2933;52.302;8.134;2023-04-29T09:34:37;20.80;;;12.80;;
5813;SDS011;2933;52.302;8.134;2023-04-29T09:39:40;24.13;;;12.80;;
5813;SDS011;2933;52.302;8.134;2023-04-29T09:44:43;22.60;;;11.80;;
5813;SDS011;2933;52.302;8.134;2023-04-29T09:49:44;15.33;;;10.17;;
5813;SDS011;2933;52.302;8.134;2023-04-29T09:54:47;18.30;;;10.43;;
5813;SDS011;2933;52.302;8.134;2023-04-29T09:59:50;20.93;;;10.80;;
5813;SDS011;2933;52.302;8.134;2023-04-29T10:04:52;18.50;;;10.80;;
5813;SDS011;2933;52.302;8.134;2023-04-29T10:09:56;17.67;;;9.97;;
5813;SDS011;2933;52.302;8.134;2023-04-29T10:15:01;15.10;;;10.27;;
5813;SDS011;2933;52.302;8.134;2023-04-29T10:20:04;18.67;;;9.23;;
5813;SDS011;2933;52.302;8.134;2023-04-29T10:25:08;14.97;;;9.40;;
5813;SDS011;2933;52.302;8.134;2023-04-29T10:30:12;15.90;;;10.07;;
5813;SDS011;2933;52.302;8.134;2023-04-29T10:35:15;15.20;;;10.53;;
5813;SDS011;2933;52.302;8.134;2023-04-29T10:40:21;18.70;;;9.93;;
5813;SDS011;2933;52.302;8.134;2023-04-29T10:45:26;17.20;;;9.80;;
5813;SDS011;2933;52.302;8.134;2023-04-29T10:50:30;17.37;;;9.57;;
5813;SDS011;2933;52.302;8.134;2023-04-29T10:55:34;15.73;;;9.20;;
5813;SDS011;2933;52.302;8.134;2023-04-29T11:00:38;14.80;;;9.27;;
5813;SDS011;2933;52.302;8.134;2023-04-29T11:05:40;15.30;;;9.00;;
5813;SDS011;2933;52.302;8.134;2023-04-29T11:10:41;10.47;;;7.83;;
5813;SDS011;2933;52.302;8.134;2023-04-29T11:15:45;15.90;;;8.43;;
5813;SDS011;2933;52.302;8.134;2023-04-29T11:26:16;11.40;;;7.80;;
5813;SDS011;2933;52.302;8.134;2023-04-29T11:31:22;18.23;;;8.80;;
5813;SDS011;2933;52.302;8.134;2023-04-29T11:36:27;15.20;;;8.50;;
5813;SDS011;2933;52.302;8.134;2023-04-29T11:41:31;8.10;;;7.03;;
5813;SDS011;2933;52.302;8.134;2023-04-29T11:46:36;13.33;;;8.70;;
5813;SDS011;2933;52.302;8.134;2023-04-29T11:51:37;11.43;;;7.30;;
5813;SDS011;2933;52.302;8.134;2023-04-29T11:56:40;10.13;;;6.40;;
5813;SDS011;2933;52.302;8.134;2023-04-29T12:01:43;9.50;;;6.40;;
5813;SDS011;2933;52.302;8.134;2023-04-29T12:06:45;10.87;;;7.20;;
5813;SDS011;2933;52.302;8.134;2023-04-29T12:11:47;7.30;;;5.43;;
5813;SDS011;2933;52.302;8.134;2023-04-29T12:16:51;7.73;;;5.67;;
5813;SDS011;2933;52.302;8.134;2023-04-29T12:21:53;8.77;;;5.60;;
5813;SDS011;2933;52.302;8.134;2023-04-29T12:26:59;8.07;;;5.63;;
5813;SDS011;2933;52.302;8.134;2023-04-29T12:32:02;6.87;;;5.00;;
5813;SDS011;2933;52.302;8.134;2023-04-29T12:37:03;5.33;;;4.60;;
5813;SDS011;2933;52.302;8.134;2023-04-29T12:42:05;7.17;;;5.00;;
5813;SDS011;2933;52.302;8.134;2023-04-29T12:47:08;6.70;;;4.83;;
5813;SDS011;2933;52.302;8.134;2023-04-29T12:52:12;6.17;;;5.30;;
5813;SDS011;2933;52.302;8.134;2023-04-29T12:57:14;6.53;;;5.63;;
5813;SDS011;2933;52.302;8.134;2023-04-29T13:02:17;8.20;;;5.23;;
5813;SDS011;2933;52.302;8.134;2023-04-29T13:07:18;5.50;;;4.30;;
5813;SDS011;2933;52.302;8.134;2023-04-29T13:12:20;4.30;;;3.90;;
5813;SDS011;2933;52.302;8.134;2023-04-29T13:17:23;4.10;;;3.80;;
5813;SDS011;2933;52.302;8.134;2023-04-29T13:22:25;4.10;;;3.70;;
5813;SDS011;2933;52.302;8.134;2023-04-29T13:27:26;3.97;;;3.63;;
5813;SDS011;2933;52.302;8.134;2023-04-29T13:32:29;6.67;;;4.50;;
5813;SDS011;2933;52.302;8.134;2023-04-29T13:37:31;4.17;;;3.70;;
5813;SDS011;2933;52.302;8.134;2023-04-29T13:42:33;5.43;;;4.93;;
5813;SDS011;2933;52.302;8.134;2023-04-29T13:47:37;6.10;;;5.20;;
5813;SDS011;2933;52.302;8.134;2023-04-29T13:52:38;7.43;;;4.80;;
5813;SDS011;2933;52.302;8.134;2023-04-29T13:57:40;6.30;;;4.57;;
5813;SDS011;2933;52.302;8.134;2023-04-29T14:02:43;5.05;;;4.53;;
5813;SDS011;2933;52.302;8.134;2023-04-29T14:07:44;5.97;;;3.70;;
5813;SDS011;2933;52.302;8.134;2023-04-29T14:12:46;7.13;;;3.67;;
5813;SDS011;2933;52.302;8.134;2023-04-29T14:17:50;6.77;;;4.70;;
5813;SDS011;2933;52.302;8.134;2023-04-29T14:22:52;6.53;;;4.20;;
5813;SDS011;2933;52.302;8.134;2023-04-29T14:27:53;4.67;;;4.10;;
5813;SDS011;2933;52.302;8.134;2023-04-29T14:32:56;4.00;;;3.70;;
5813;SDS011;2933;52.302;8.134;2023-04-29T14:37:58;4.30;;;3.40;;
5813;SDS011;2933;52.302;8.134;2023-04-29T14:42:59;7.63;;;3.57;;
5813;SDS011;2933;52.302;8.134;2023-04-29T14:48:04;3.80;;;3.40;;
5813;SDS011;2933;52.302;8.134;2023-04-29T14:53:06;6.40;;;3.50;;
5813;SDS011;2933;52.302;8.134;2023-04-29T14:58:09;4.00;;;3.70;;
5813;SDS011;2933;52.302;8.134;2023-04-29T15:03:12;3.83;;;3.53;;
5813;SDS011;2933;52.302;8.134;2023-04-29T15:08:13;3.30;;;3.00;;
5813;SDS011;2933;52.302;8.134;2023-04-29T15:13:16;3.70;;;3.40;;
5813;SDS011;2933;52.302;8.134;2023-04-29T15:18:19;3.20;;;2.93;;
5813;SDS011;2933;52.302;8.134;2023-04-29T15:23:22;3.70;;;3.00;;
5813;SDS011;2933;52.302;8.134;2023-04-29T15:28:23;5.83;;;3.00;;
5813;SDS011;2933;52.302;8.134;2023-04-29T15:33:26;5.60;;;3.10;;
5813;SDS011;2933;52.302;8.134;2023-04-29T15:38:28;3.60;;;3.30;;
5813;SDS011;2933;52.302;8.134;2023-04-29T15:43:30;7.63;;;3.33;;
5813;SDS011;2933;52.302;8.134;2023-04-29T15:48:34;4.33;;;2.93;;
5813;SDS011;2933;52.302;8.134;2023-04-29T15:53:35;2.83;;;2.63;;
5813;SDS011;2933;52.302;8.134;2023-04-29T15:58:37;5.20;;;3.97;;
5813;SDS011;2933;52.302;8.134;2023-04-29T16:03:40;4.87;;;3.60;;
5813;SDS011;2933;52.302;8.134;2023-04-29T16:08:41;3.83;;;3.03;;
5813;SDS011;2933;52.302;8.134;2023-04-29T16:13:43;4.97;;;3.00;;
5813;SDS011;2933;52.302;8.134;2023-04-29T16:18:46;4.00;;;3.67;;
5813;SDS011;2933;52.302;8.134;2023-04-29T16:23:47;7.57;;;3.70;;
5813;SDS011;2933;52.302;8.134;2023-04-29T16:28:50;6.30;;;3.53;;
5813;SDS011;2933;52.302;8.134;2023-04-29T16:33:53;3.53;;;2.47;;
5813;SDS011;2933;52.302;8.134;2023-04-29T16:38:56;6.00;;;2.93;;
5813;SDS011;2933;52.302;8.134;2023-04-29T16:43:57;5.60;;;3.10;;
5813;SDS011;2933;52.302;8.134;2023-04-29T16:49:00;3.90;;;3.13;;
5813;SDS011;2933;52.302;8.134;2023-04-29T16:54:02;5.00;;;3.30;;
5813;SDS011;2933;52.302;8.134;2023-04-29T16:59:03;6.80;;;3.37;;
5813;SDS011;2933;52.302;8.134;2023-04-29T17:04:06;6.63;;;3.30;;
5813;SDS011;2933;52.302;8.134;2023-04-29T17:09:08;3.53;;;3.23;;
5813;SDS011;2933;52.302;8.134;2023-04-29T17:14:10;8.53;;;3.20;;
5813;SDS011;2933;52.302;8.134;2023-04-29T17:19:13;2.70;;;2.50;;
5813;SDS011;2933;52.302;8.134;2023-04-29T17:24:15;2.40;;;2.20;;
5813;SDS011;2933;52.302;8.134;2023-04-29T17:29:17;2.87;;;2.60;;
5813;SDS011;2933;52.302;8.134;2023-04-29T17:34:19;2.87;;;2.67;;
5813;SDS011;2933;52.302;8.134;2023-04-29T17:39:24;2.47;;;2.27;;
5813;SDS011;2933;52.302;8.134;2023-04-29T17:44:26;2.77;;;2.40;;
5813;SDS011;2933;52.302;8.134;2023-04-29T17:49:29;2.40;;;2.30;;
5813;SDS011;2933;52.302;8.134;2023-04-29T17:54:30;2.33;;;2.20;;
5813;SDS011;2933;52.302;8.134;2023-04-29T17:59:32;2.37;;;2.27;;
5813;SDS011;2933;52.302;8.134;2023-04-29T18:04:35;2.37;;;2.27;;
5813;SDS011;2933;52.302;8.134;2023-04-29T18:09:37;5.13;;;2.27;;
5813;SDS011;2933;52.302;8.134;2023-04-29T18:14:38;2.60;;;2.40;;
5813;SDS011;2933;52.302;8.134;2023-04-29T18:19:42;2.93;;;2.70;;
5813;SDS011;2933;52.302;8.134;2023-04-29T18:24:46;3.00;;;2.80;;
5813;SDS011;2933;52.302;8.134;2023-04-29T18:29:48;3.53;;;3.00;;
5813;SDS011;2933;52.302;8.134;2023-04-29T18:34:51;1.80;;;1.70;;
5813;SDS011;2933;52.302;8.134;2023-04-29T18:39:53;3.53;;;2.47;;
5813;SDS011;2933;52.302;8.134;2023-04-29T18:44:54;1.80;;;1.70;;
5813;SDS011;2933;52.302;8.134;2023-04-29T18:50:07;2.83;;;2.40;;
5813;SDS011;2933;52.302;8.134;2023-04-29T18:55:11;5.23;;;2.90;;
5813;SDS011;2933;52.302;8.134;2023-04-29T19:00:13;2.30;;;1.93;;
5813;SDS011;2933;52.302;8.134;2023-04-29T19:05:16;2.57;;;2.37;;
5813;SDS011;2933;52.302;8.134;2023-04-29T19:10:18;2.20;;;2.10;;
5813;SDS011;2933;52.302;8.134;2023-04-29T19:15:20;4.87;;;2.80;;
5813;SDS011;2933;52.302;8.134;2023-04-29T19:20:25;2.40;;;2.30;;
5813;SDS011;2933;52.302;8.134;2023-04-29T19:25:27;4.60;;;3.10;;
5813;SDS011;2933;52.302;8.134;2023-04-29T19:30:30;5.63;;;2.83;;
5813;SDS011;2933;52.302;8.134;2023-04-29T19:35:33;4.90;;;3.00;;
5813;SDS011;2933;52.302;8.134;2023-04-29T19:40:35;6.03;;;2.83;;
5813;SDS011;2933;52.302;8.134;2023-04-29T19:45:37;2.90;;;2.70;;
5813;SDS011;2933;52.302;8.134;2023-04-29T19:50:40;8.83;;;3.33;;
5813;SDS011;2933;52.302;8.134;2023-04-29T19:55:41;4.67;;;3.07;;
5813;SDS011;2933;52.302;8.134;2023-04-29T20:00:43;3.27;;;2.60;;
5813;SDS011;2933;52.302;8.134;2023-04-29T20:05:46;2.80;;;2.67;;
5813;SDS011;2933;52.302;8.134;2023-04-29T20:10:48;4.30;;;2.67;;
5813;SDS011;2933;52.302;8.134;2023-04-29T20:15:49;3.20;;;2.90;;
5813;SDS011;2933;52.302;8.134;2023-04-29T20:20:54;3.73;;;2.83;;
5813;SDS011;2933;52.302;8.134;2023-04-29T20:25:56;5.20;;;2.67;;
5813;SDS011;2933;52.302;8.134;2023-04-29T20:30:57;3.77;;;3.47;;
5813;SDS011;2933;52.302;8.134;2023-04-29T20:36:00;3.17;;;2.87;;
5813;SDS011;2933;52.302;8.134;2023-04-29T20:41:05;3.10;;;2.87;;
5813;SDS011;2933;52.302;8.134;2023-04-29T20:46:07;2.97;;;2.77;;
5813;SDS011;2933;52.302;8.134;2023-04-29T20:51:10;3.43;;;2.93;;
5813;SDS011;2933;52.302;8.134;2023-04-29T20:56:12;5.77;;;2.97;;
5813;SDS011;2933;52.302;8.134;2023-04-29T21:01:14;5.30;;;3.07;;
5813;SDS011;2933;52.302;8.134;2023-04-29T21:06:16;3.13;;;3.03;;
5813;SDS011;2933;52.302;8.134;2023-04-29T21:11:18;3.53;;;3.23;;
5813;SDS011;2933;52.302;8.134;2023-04-29T21:16:20;2.97;;;2.77;;
5813;SDS011;2933;52.302;8.134;2023-04-29T21:21:23;3.13;;;2.93;;
5813;SDS011;2933;52.302;8.134;2023-04-29T21:26:25;3.43;;;3.23;;
5813;SDS011;2933;52.302;8.134;2023-04-29T21:31:26;5.50;;;3.20;;
5813;SDS011;2933;52.302;8.134;2023-04-29T21:36:31;4.23;;;3.30;;
5813;SDS011;2933;52.302;8.134;2023-04-29T21:41:33;4.00;;;3.00;;
5813;SDS011;2933;52.302;8.134;2023-04-29T21:46:37;3.33;;;3.13;;
5813;SDS011;2933;52.302;8.134;2023-04-29T21:51:40;4.13;;;2.87;;
5813;SDS011;2933;52.302;8.134;2023-04-29T21:56:42;3.00;;;2.80;;
5813;SDS011;2933;52.302;8.134;2023-04-29T22:01:43;3.23;;;3.03;;
5813;SDS011;2933;52.302;8.134;2023-04-29T22:06:49;3.30;;;2.60;;
5813;SDS011;2933;52.302;8.134;2023-04-29T22:11:51;3.67;;;3.33;;
5813;SDS011;2933;52.302;8.134;2023-04-29T22:16:52;3.60;;;3.00;;
5813;SDS011;2933;52.302;8.134;2023-04-29T22:21:55;3.27;;;2.90;;
5813;SDS011;2933;52.302;8.134;2023-04-29T22:26:56;6.50;;;3.60;;
5813;SDS011;2933;52.302;8.134;2023-04-29T22:31:58;7.33;;;3.30;;
5813;SDS011;2933;52.302;8.134;2023-04-29T22:37:01;7.90;;;3.47;;
5813;SDS011;2933;52.302;8.134;2023-04-29T22:42:02;3.83;;;3.50;;
5813;SDS011;2933;52.302;8.134;2023-04-29T22:47:04;3.30;;;3.00;;
5813;SDS011;2933;52.302;8.134;2023-04-29T22:52:07;3.63;;;3.33;;
5813;SDS011;2933;52.302;8.134;2023-04-29T22:57:08;4.63;;;3.53;;
5813;SDS011;2933;52.302;8.134;2023-04-29T23:02:10;4.10;;;2.87;;
5813;SDS011;2933;52.302;8.134;2023-04-29T23:07:14;3.90;;;3.50;;
5813;SDS011;2933;52.302;8.134;2023-04-29T23:12:15;4.23;;;3.30;;
5813;SDS011;2933;52.302;8.134;2023-04-29T23:17:17;3.40;;;3.30;;
5813;SDS011;2933;52.302;8.134;2023-04-29T23:22:20;3.20;;;3.00;;
5813;SDS011;2933;52.302;8.134;2023-04-29T23:27:22;4.97;;;3.30;;
5813;SDS011;2933;52.302;8.134;2023-04-29T23:32:23;3.43;;;3.20;;
5813;SDS011;2933;52.302;8.134;2023-04-29T23:37:26;3.53;;;3.23;;
5813;SDS011;2933;52.302;8.134;2023-04-29T23:42:27;3.90;;;3.50;;
5813;SDS011;2933;52.302;8.134;2023-04-29T23:47:29;7.03;;;3.53;;
5813;SDS011;2933;52.302;8.134;2023-04-29T23:52:32;3.40;;;3.20;;
5813;SDS011;2933;52.302;8.134;2023-04-29T23:57:33;5.97;;;3.70;;
